ADDS METAR Data INFO
IDs: Format: Raw Decoded Include TAF

Data at: 0643 UTC 23 Feb 2018

KMIA 230553Z 09011KT 10SM SCT023 SCT033 SCT045 24/20 A3031 RMK AO2 SLP262 T02440200 10250 20233 58007 $
KMIA 230453Z 09011KT 10SM FEW027 SCT036 24/20 A3032 RMK AO2 SLP266 T02390200 402830222 $
KMIA 230353Z 09012KT 10SM FEW027 FEW033 24/19 A3032 RMK AO2 SLP268 T02390194 $
KMIA 230253Z 07010KT 10SM SCT029 24/19 A3033 RMK AO2 SLP269 T02390189 51006 $
KMIA 230153Z 08012KT 10SM SCT027 24/20 A3032 RMK AO2 SLP267 T02440200 $
KMIA 230053Z 07010KT 10SM SCT025 24/20 A3032 RMK AO2 SLP266 T02440200 $
KMIA 222353Z 08011KT 10SM FEW027 25/19 A3031 RMK AO2 SLP263 T02500194 10278 20244 53004 $
KMIA 222253Z 08012KT 10SM SCT029 26/20 A3030 RMK AO2 SLP261 T02560200 $
KMIA 222153Z 09013KT 10SM SCT030 26/18 A3030 RMK AO2 SLP259 T02610183 $
KMIA 222053Z 08011G19KT 10SM BKN032 BKN050 27/19 A3029 RMK AO2 SLP258 T02670194 56014 $
KMIA 221953Z 09014KT 10SM BKN034 BKN049 27/19 A3030 RMK AO2 SLP261 T02670194 $
KMIA 221853Z 08014KT 10SM SCT030 BKN046 27/19 A3032 RMK AO2 SLP267 T02670189 $
KMIA 221843Z 08014G20KT 10SM SCT030 BKN046 27/19 A3032 RMK AO2 T02670194 $
KMIA 221753Z 08014G22KT 10SM BKN028 BKN040 27/19 A3034 RMK AO2 SLP273 T02720194 10283 20233 58009 $
KMIA 221653Z 11014G24KT 10SM BKN028 BKN042 27/19 A3036 RMK AO2 SLP279 T02670194 $
KMIA 221553Z 09016KT 10SM BKN027 BKN048 27/20 A3037 RMK AO2 SLP283 T02670200 $
KMIA 221551Z 09016KT 10SM BKN027 BKN048 27/20 A3037 RMK AO2 $
KMIA 221453Z COR 08015G21KT 10SM SCT024 SCT045 26/20 A3036 RMK AO2 SLP282 T02610200 51014
KMIA 221353Z 08018G23KT 10SM SCT022 OVC043 24/21 A3036 RMK AO2 SLP279 T02440206
KMIA 221253Z 09015KT 10SM SCT024 BKN038 OVC048 24/21 A3034 RMK AO2 SLP274 T02390206 $
KMIA 221245Z 08014G21KT 10SM SCT024 BKN038 OVC047 24/21 A3034 RMK AO2 T02390206 $
KMIA 221237Z 08011KT 10SM BKN024 BKN033 OVC047 24/21 A3034 RMK AO2 T02390206 $
KMIA 221153Z 08011KT 10SM SCT022 BKN040 OVC080 23/21 A3032 RMK AO2 SLP268 60001 70001 T02330206 10239 20222 53012 $
KMIA 221053Z 08009KT 8SM FEW024 BKN038 OVC050 23/21 A3031 RMK AO2 RAB18E52 SLP263 P0001 T02280206 $
KMIA 221031Z 08011KT 7SM -RA FEW023 BKN042 OVC070 22/21 A3030 RMK AO2 RAB18 P0001 T02220206 $
KMIA 221024Z 09016KT 2 1/2SM -RA BR FEW023 BKN027 OVC045 23/21 A3030 RMK AO2 RAB18 P0001 T02280206 $
KMIA 220953Z 08009KT 7SM FEW025 BKN045 BKN075 24/21 A3029 RMK AO2 SLP257 T02390206 $
KMIA 220853Z 09010KT 7SM SCT023 BKN033 BKN048 24/21 A3029 RMK AO2 SLP256 T02390206 58010 $
KMIA 220753Z 09009KT 8SM SCT023 SCT035 23/20 A3030 RMK AO2 SLP260 T02330200 $
KMIA 220653Z 10012KT 9SM SCT023 BKN032 24/20 A3031 RMK AO2 SLP264 T02390200 $
KMIA 220553Z 10012KT 9SM FEW023 FEW033 24/21 A3032 RMK AO2 SLP267 T02390206 10256 20233 58006 $
KMIA 220453Z 09010KT 9SM SCT023 SCT033 24/20 A3033 RMK AO2 SLP270 T02390200 402830233 $
KMIA 220353Z 09014KT 10SM FEW023 24/20 A3034 RMK AO2 SLP273 T02390200 $
KMIA 212353Z 10011G18KT 10SM FEW028 25/19 A3032 RMK AO2 SLP265 T02500189 10283 20244 53007 $
KMIA 212253Z 08012G32KT 10SM SCT028 25/20 A3031 RMK AO2 PK WND 09032/2244 SLP264 T02500200 $
KMIA 212153Z 09016KT 10SM SCT028 BKN036 26/20 A3030 RMK AO2 SLP259 T02560200 $
KMIA 212053Z 10016G20KT 10SM BKN030 27/20 A3030 RMK AO2 SLP259 T02670200 56012 $
KMIA 211953Z 08021KT 10SM BKN030 27/19 A3031 RMK AO2 SLP262 T02720194 $
KMIA 211853Z 10016G23KT 10SM SCT023 BKN030 BKN060 27/20 A3032 RMK AO2 SLP265 T02670200 $